WAT5852 CYYZ-KJFK
Flight info
| Callsign | WAT5852 |
|---|---|
| Flight time | N/A |
| Altitude | 33000 |
| Route | KEPTA3 BMPAH DCT AEVON DCT EXTOL Q140 MEMMS PUCKY1 |
| Aircraft | B738/M-SDE2E3FGHIRWXY/LB1 |
Departure
| Time | 2026-05-08 02:45 |
|---|---|
| Airport | Toronto Pearson International Airport (CYYZ) |
Arrival
| Time | N/A |
|---|---|
| Airport | John F. Kennedy International Airport (KJFK) |
| Time | Latitude | Longitude | Altitude | Speed | Heading |
|---|---|---|---|---|---|
| 2026-05-08 02:35 | 43.68217 | -79.65753 | 568 ft | 0 kts | 136° |
| 2026-05-08 02:38 | 43.68230 | -79.65770 | 570 ft | 4 kts | 136° |
| 2026-05-08 02:38 | 43.68248 | -79.65797 | 569 ft | 4 kts | 126° |
| 2026-05-08 02:38 | 43.68262 | -79.65829 | 575 ft | 4 kts | 116° |
| 2026-05-08 02:38 | 43.68264 | -79.65835 | 574 ft | 1 kts | 116° |
| 2026-05-08 02:40 | 43.68264 | -79.65825 | 569 ft | 7 kts | 88° |
| 2026-05-08 02:40 | 43.68306 | -79.65746 | 572 ft | 11 kts | 49° |
| 2026-05-08 02:40 | 43.68366 | -79.65630 | 571 ft | 15 kts | 80° |
| 2026-05-08 02:41 | 43.68315 | -79.65539 | 571 ft | 12 kts | 137° |
| 2026-05-08 02:41 | 43.68313 | -79.65438 | 571 ft | 12 kts | 45° |
| 2026-05-08 02:41 | 43.68369 | -79.65352 | 572 ft | 12 kts | 47° |
| 2026-05-08 02:41 | 43.68448 | -79.65281 | 571 ft | 15 kts | 15° |
| 2026-05-08 02:42 | 43.68553 | -79.65246 | 575 ft | 16 kts | 10° |
| 2026-05-08 02:42 | 43.68652 | -79.65177 | 576 ft | 18 kts | 43° |
| 2026-05-08 02:42 | 43.68767 | -79.65042 | 574 ft | 24 kts | 40° |
| 2026-05-08 02:42 | 43.68886 | -79.64882 | 568 ft | 23 kts | 46° |
| 2026-05-08 02:43 | 43.68995 | -79.64724 | 569 ft | 22 kts | 46° |
| 2026-05-08 02:43 | 43.69102 | -79.64570 | 577 ft | 22 kts | 46° |
| 2026-05-08 02:43 | 43.69205 | -79.64420 | 578 ft | 21 kts | 46° |
| 2026-05-08 02:43 | 43.69304 | -79.64272 | 578 ft | 21 kts | 48° |
| 2026-05-08 02:44 | 43.69370 | -79.64100 | 575 ft | 19 kts | 81° |
| 2026-05-08 02:44 | 43.69291 | -79.63954 | 564 ft | 20 kts | 138° |
| 2026-05-08 02:44 | 43.69183 | -79.63860 | 569 ft | 19 kts | 200° |
| 2026-05-08 02:44 | 43.69067 | -79.64008 | 571 ft | 44 kts | 226° |
| 2026-05-08 02:45 | 43.68668 | -79.64586 | 568 ft | 120 kts | 227° |
| 2026-05-08 02:45 | 43.67960 | -79.65615 | 776 ft | 163 kts | 226° |
| 2026-05-08 02:45 | 43.67160 | -79.66744 | 1656 ft | 169 kts | 227° |
| 2026-05-08 02:45 | 43.66345 | -79.67972 | 2464 ft | 177 kts | 232° |
| 2026-05-08 02:46 | 43.65570 | -79.69413 | 2976 ft | 201 kts | 232° |
| 2026-05-08 02:46 | 43.64302 | -79.70461 | 3186 ft | 233 kts | 191° |
| 2026-05-08 02:46 | 43.62625 | -79.70068 | 3516 ft | 261 kts | 152° |
| 2026-05-08 02:46 | 43.61236 | -79.68393 | 4311 ft | 272 kts | 127° |
| 2026-05-08 02:47 | 43.60352 | -79.66068 | 5228 ft | 276 kts | 115° |
| 2026-05-08 02:47 | 43.59600 | -79.63593 | 6066 ft | 283 kts | 113° |
| 2026-05-08 02:47 | 43.58851 | -79.61050 | 6899 ft | 289 kts | 114° |
| 2026-05-08 02:47 | 43.58087 | -79.58472 | 7758 ft | 292 kts | 114° |
| 2026-05-08 02:48 | 43.57303 | -79.55860 | 8612 ft | 297 kts | 114° |
| 2026-05-08 02:48 | 43.56500 | -79.53216 | 9462 ft | 301 kts | 114° |
| 2026-05-08 02:48 | 43.55678 | -79.50529 | 10238 ft | 307 kts | 115° |
| 2026-05-08 02:48 | 43.54812 | -79.47722 | 10535 ft | 331 kts | 115° |
| 2026-05-08 02:49 | 43.53876 | -79.44694 | 10737 ft | 354 kts | 114° |
| 2026-05-08 02:49 | 43.52897 | -79.41519 | 11320 ft | 364 kts | 114° |
| 2026-05-08 02:49 | 43.51925 | -79.38330 | 12135 ft | 366 kts | 114° |
| 2026-05-08 02:49 | 43.50935 | -79.35070 | 12885 ft | 372 kts | 114° |
| 2026-05-08 02:50 | 43.49930 | -79.31765 | 13631 ft | 377 kts | 114° |
| 2026-05-08 02:50 | 43.48909 | -79.28414 | 14307 ft | 382 kts | 114° |